sensor_id;sensor_type;location;lat;lon;timestamp;pressure;altitude;pressure_sealevel;temperature
45701;BMP280;36277;32.852;-116.998;2023-06-22T00:01:07;99899.91;;;24.70
45701;BMP280;36277;32.852;-116.998;2023-06-22T00:03:34;99889.94;;;24.75
45701;BMP280;36277;32.852;-116.998;2023-06-22T00:06:00;99896.22;;;24.63
45701;BMP280;36277;32.852;-116.998;2023-06-22T00:08:26;99891.44;;;24.23
45701;BMP280;36277;32.852;-116.998;2023-06-22T00:10:52;99891.34;;;23.68
45701;BMP280;36277;32.852;-116.998;2023-06-22T00:13:18;99887.72;;;23.26
45701;BMP280;36277;32.852;-116.998;2023-06-22T00:15:45;99874.56;;;22.93
45701;BMP280;36277;32.852;-116.998;2023-06-22T00:18:11;99878.00;;;22.66
45701;BMP280;36277;32.852;-116.998;2023-06-22T00:20:39;99883.88;;;22.34
45701;BMP280;36277;32.852;-116.998;2023-06-22T00:23:06;99885.31;;;22.22
45701;BMP280;36277;32.852;-116.998;2023-06-22T00:25:36;99874.66;;;21.90
45701;BMP280;36277;32.852;-116.998;2023-06-22T00:28:03;99878.31;;;22.19
45701;BMP280;36277;32.852;-116.998;2023-06-22T00:30:31;99871.91;;;22.85
45701;BMP280;36277;32.852;-116.998;2023-06-22T00:32:57;99878.78;;;23.24
45701;BMP280;36277;32.852;-116.998;2023-06-22T00:35:25;99878.31;;;23.56
45701;BMP280;36277;32.852;-116.998;2023-06-22T00:37:58;99878.38;;;23.83
45701;BMP280;36277;32.852;-116.998;2023-06-22T00:40:31;99875.19;;;24.07
45701;BMP280;36277;32.852;-116.998;2023-06-22T00:42:57;99872.03;;;23.83
45701;BMP280;36277;32.852;-116.998;2023-06-22T00:45:25;99866.50;;;23.26
45701;BMP280;36277;32.852;-116.998;2023-06-22T00:47:53;99865.78;;;23.03
45701;BMP280;36277;32.852;-116.998;2023-06-22T00:50:22;99859.13;;;22.63
45701;BMP280;36277;32.852;-116.998;2023-06-22T00:52:57;99865.53;;;22.26
45701;BMP280;36277;32.852;-116.998;2023-06-22T00:55:24;99869.41;;;22.32
45701;BMP280;36277;32.852;-116.998;2023-06-22T00:57:52;99858.69;;;22.95
45701;BMP280;36277;32.852;-116.998;2023-06-22T01:00:25;99862.22;;;23.38
45701;BMP280;36277;32.852;-116.998;2023-06-22T01:02:52;99858.69;;;23.65
45701;BMP280;36277;32.852;-116.998;2023-06-22T01:05:20;99861.31;;;23.94
45701;BMP280;36277;32.852;-116.998;2023-06-22T01:16:23;99868.59;;;24.02
45701;BMP280;36277;32.852;-116.998;2023-06-22T01:18:52;99862.03;;;24.03
45701;BMP280;36277;32.852;-116.998;2023-06-22T01:21:22;99861.34;;;24.28
45701;BMP280;36277;32.852;-116.998;2023-06-22T01:24:17;99861.13;;;24.50
45701;BMP280;36277;32.852;-116.998;2023-06-22T01:27:04;99864.66;;;24.44
45701;BMP280;36277;32.852;-116.998;2023-06-22T01:29:38;99863.81;;;23.89
45701;BMP280;36277;32.852;-116.998;2023-06-22T01:32:06;99864.59;;;23.41
45701;BMP280;36277;32.852;-116.998;2023-06-22T01:34:33;99871.00;;;23.13
45701;BMP280;36277;32.852;-116.998;2023-06-22T01:37:02;99863.81;;;22.83
45701;BMP280;36277;32.852;-116.998;2023-06-22T01:39:29;99869.53;;;22.53
45701;BMP280;36277;32.852;-116.998;2023-06-22T01:41:57;99867.97;;;22.21
45701;BMP280;36277;32.852;-116.998;2023-06-22T01:44:25;99870.63;;;22.15
45701;BMP280;36277;32.852;-116.998;2023-06-22T01:46:52;99868.41;;;22.76
45701;BMP280;36277;32.852;-116.998;2023-06-22T01:49:19;99874.91;;;23.18
45701;BMP280;36277;32.852;-116.998;2023-06-22T01:51:45;99879.53;;;23.53
45701;BMP280;36277;32.852;-116.998;2023-06-22T01:54:11;99886.19;;;23.80
45701;BMP280;36277;32.852;-116.998;2023-06-22T01:56:38;99889.38;;;24.04
45701;BMP280;36277;32.852;-116.998;2023-06-22T02:02:08;99886.81;;;23.61
45701;BMP280;36277;32.852;-116.998;2023-06-22T02:07:14;99885.59;;;22.78
45701;BMP280;36277;32.852;-116.998;2023-06-22T02:09:45;99886.25;;;22.37
45701;BMP280;36277;32.852;-116.998;2023-06-22T02:12:13;99884.41;;;22.44
45701;BMP280;36277;32.852;-116.998;2023-06-22T02:14:43;99888.00;;;23.02
45701;BMP280;36277;32.852;-116.998;2023-06-22T02:17:10;99891.84;;;23.36
45701;BMP280;36277;32.852;-116.998;2023-06-22T02:19:42;99889.22;;;23.70
45701;BMP280;36277;32.852;-116.998;2023-06-22T02:22:08;99885.88;;;23.89
45701;BMP280;36277;32.852;-116.998;2023-06-22T02:24:34;99887.94;;;24.08
45701;BMP280;36277;32.852;-116.998;2023-06-22T02:27:02;99882.31;;;24.22
45701;BMP280;36277;32.852;-116.998;2023-06-22T02:29:28;99880.94;;;24.06
45701;BMP280;36277;32.852;-116.998;2023-06-22T02:31:55;99888.06;;;24.00
45701;BMP280;36277;32.852;-116.998;2023-06-22T02:34:21;99882.41;;;23.45
45701;BMP280;36277;32.852;-116.998;2023-06-22T02:36:49;99886.13;;;22.88
45701;BMP280;36277;32.852;-116.998;2023-06-22T02:39:23;99888.34;;;22.64
45701;BMP280;36277;32.852;-116.998;2023-06-22T02:41:50;99888.78;;;22.82
45701;BMP280;36277;32.852;-116.998;2023-06-22T02:44:17;99888.94;;;23.23
45701;BMP280;36277;32.852;-116.998;2023-06-22T02:46:44;99897.47;;;23.49
45701;BMP280;36277;32.852;-116.998;2023-06-22T02:49:10;99893.81;;;23.78
45701;BMP280;36277;32.852;-116.998;2023-06-22T02:51:42;99903.56;;;24.01
45701;BMP280;36277;32.852;-116.998;2023-06-22T02:54:08;99903.94;;;24.19
45701;BMP280;36277;32.852;-116.998;2023-06-22T02:56:35;99903.94;;;24.19
45701;BMP280;36277;32.852;-116.998;2023-06-22T02:59:02;99909.75;;;24.30
45701;BMP280;36277;32.852;-116.998;2023-06-22T03:01:29;99901.13;;;24.40
45701;BMP280;36277;32.852;-116.998;2023-06-22T03:03:56;99900.34;;;24.46
45701;BMP280;36277;32.852;-116.998;2023-06-22T03:06:23;99910.13;;;24.48
45701;BMP280;36277;32.852;-116.998;2023-06-22T03:09:00;99905.13;;;24.10
45701;BMP280;36277;32.852;-116.998;2023-06-22T03:11:27;99909.38;;;23.14
45701;BMP280;36277;32.852;-116.998;2023-06-22T03:13:53;99908.63;;;22.63
45701;BMP280;36277;32.852;-116.998;2023-06-22T03:16:19;99912.16;;;23.35
45701;BMP280;36277;32.852;-116.998;2023-06-22T03:18:46;99914.44;;;23.67
45701;BMP280;36277;32.852;-116.998;2023-06-22T03:21:12;99913.88;;;23.93
45701;BMP280;36277;32.852;-116.998;2023-06-22T03:23:38;99915.75;;;24.13
45701;BMP280;36277;32.852;-116.998;2023-06-22T03:26:04;99918.03;;;24.30
45701;BMP280;36277;32.852;-116.998;2023-06-22T03:28:30;99921.53;;;24.45
45701;BMP280;36277;32.852;-116.998;2023-06-22T03:30:59;99925.50;;;24.57
45701;BMP280;36277;32.852;-116.998;2023-06-22T03:33:26;99919.22;;;24.70
45701;BMP280;36277;32.852;-116.998;2023-06-22T03:35:52;99928.59;;;24.82
45701;BMP280;36277;32.852;-116.998;2023-06-22T03:38:19;99923.59;;;24.92
45701;BMP280;36277;32.852;-116.998;2023-06-22T03:40:45;99930.63;;;25.01
45701;BMP280;36277;32.852;-116.998;2023-06-22T03:43:12;99940.03;;;25.06
45701;BMP280;36277;32.852;-116.998;2023-06-22T03:45:38;99938.13;;;25.13
45701;BMP280;36277;32.852;-116.998;2023-06-22T03:48:06;99931.63;;;25.21
45701;BMP280;36277;32.852;-116.998;2023-06-22T03:50:32;99923.38;;;25.27
45701;BMP280;36277;32.852;-116.998;2023-06-22T03:52:58;99926.38;;;25.32
45701;BMP280;36277;32.852;-116.998;2023-06-22T03:55:24;99932.31;;;25.35
45701;BMP280;36277;32.852;-116.998;2023-06-22T03:57:51;99936.16;;;25.41
45701;BMP280;36277;32.852;-116.998;2023-06-22T04:00:18;99938.50;;;25.44
45701;BMP280;36277;32.852;-116.998;2023-06-22T04:02:45;99940.84;;;25.47
45701;BMP280;36277;32.852;-116.998;2023-06-22T04:05:11;99944.28;;;25.49
45701;BMP280;36277;32.852;-116.998;2023-06-22T04:07:37;99943.00;;;25.51
45701;BMP280;36277;32.852;-116.998;2023-06-22T04:10:04;99947.06;;;25.55
45701;BMP280;36277;32.852;-116.998;2023-06-22T04:12:30;99956.00;;;25.57
45701;BMP280;36277;32.852;-116.998;2023-06-22T04:14:57;99951.75;;;25.61
45701;BMP280;36277;32.852;-116.998;2023-06-22T04:17:23;99957.06;;;25.63
45701;BMP280;36277;32.852;-116.998;2023-06-22T04:19:51;99959.22;;;25.67
45701;BMP280;36277;32.852;-116.998;2023-06-22T04:22:17;99962.63;;;25.69
45701;BMP280;36277;32.852;-116.998;2023-06-22T04:24:44;99961.34;;;25.72
45701;BMP280;36277;32.852;-116.998;2023-06-22T04:27:10;99967.31;;;25.75
45701;BMP280;36277;32.852;-116.998;2023-06-22T04:29:37;99974.16;;;25.79
45701;BMP280;36277;32.852;-116.998;2023-06-22T04:32:04;99971.63;;;25.84
45701;BMP280;36277;32.852;-116.998;2023-06-22T04:34:31;99975.03;;;25.86
45701;BMP280;36277;32.852;-116.998;2023-06-22T04:36:58;99976.75;;;25.87
45701;BMP280;36277;32.852;-116.998;2023-06-22T04:39:24;99979.94;;;25.91
45701;BMP280;36277;32.852;-116.998;2023-06-22T04:41:50;99968.88;;;25.91
45701;BMP280;36277;32.852;-116.998;2023-06-22T04:44:18;99968.69;;;25.92
45701;BMP280;36277;32.852;-116.998;2023-06-22T04:46:52;99974.84;;;25.94
45701;BMP280;36277;32.852;-116.998;2023-06-22T04:49:26;99977.03;;;25.58
45701;BMP280;36277;32.852;-116.998;2023-06-22T04:52:13;99980.03;;;25.63
45701;BMP280;36277;32.852;-116.998;2023-06-22T04:54:43;99972.34;;;25.52
45701;BMP280;36277;32.852;-116.998;2023-06-22T04:57:14;99983.59;;;25.51
45701;BMP280;36277;32.852;-116.998;2023-06-22T04:59:41;99982.06;;;25.42
45701;BMP280;36277;32.852;-116.998;2023-06-22T05:02:07;99996.38;;;25.58
45701;BMP280;36277;32.852;-116.998;2023-06-22T05:04:34;99987.91;;;25.66
45701;BMP280;36277;32.852;-116.998;2023-06-22T05:07:07;99993.03;;;25.69
45701;BMP280;36277;32.852;-116.998;2023-06-22T05:09:33;99991.13;;;25.76
45701;BMP280;36277;32.852;-116.998;2023-06-22T05:12:02;99996.28;;;25.79
45701;BMP280;36277;32.852;-116.998;2023-06-22T05:14:30;99991.22;;;25.83
45701;BMP280;36277;32.852;-116.998;2023-06-22T05:16:56;99990.16;;;25.84
45701;BMP280;36277;32.852;-116.998;2023-06-22T05:19:29;99992.91;;;25.84
45701;BMP280;36277;32.852;-116.998;2023-06-22T05:21:59;99993.75;;;25.84
45701;BMP280;36277;32.852;-116.998;2023-06-22T05:24:25;99991.34;;;25.68
45701;BMP280;36277;32.852;-116.998;2023-06-22T05:26:51;99986.88;;;25.67
45701;BMP280;36277;32.852;-116.998;2023-06-22T05:29:17;99982.81;;;25.63
45701;BMP280;36277;32.852;-116.998;2023-06-22T05:31:44;99984.28;;;25.59
45701;BMP280;36277;32.852;-116.998;2023-06-22T05:34:10;99981.28;;;25.54
45701;BMP280;36277;32.852;-116.998;2023-06-22T05:36:36;99983.78;;;25.49
45701;BMP280;36277;32.852;-116.998;2023-06-22T05:39:12;99972.34;;;25.52
45701;BMP280;36277;32.852;-116.998;2023-06-22T05:41:39;99970.41;;;25.46
45701;BMP280;36277;32.852;-116.998;2023-06-22T05:44:05;99964.44;;;25.49
45701;BMP280;36277;32.852;-116.998;2023-06-22T05:46:32;99965.72;;;25.40
45701;BMP280;36277;32.852;-116.998;2023-06-22T05:48:58;99971.03;;;25.42
45701;BMP280;36277;32.852;-116.998;2023-06-22T05:51:24;99971.41;;;25.32
45701;BMP280;36277;32.852;-116.998;2023-06-22T05:53:51;99982.69;;;25.04
45701;BMP280;36277;32.852;-116.998;2023-06-22T05:56:17;99986.91;;;24.45
45701;BMP280;36277;32.852;-116.998;2023-06-22T05:58:43;99999.28;;;24.07
45701;BMP280;36277;32.852;-116.998;2023-06-22T06:01:10;99990.19;;;24.34
45701;BMP280;36277;32.852;-116.998;2023-06-22T06:03:36;99991.63;;;24.51
45701;BMP280;36277;32.852;-116.998;2023-06-22T06:06:07;99991.94;;;24.62
45701;BMP280;36277;32.852;-116.998;2023-06-22T06:08:33;99988.22;;;24.70
45701;BMP280;36277;32.852;-116.998;2023-06-22T06:11:00;99986.72;;;24.74
45701;BMP280;36277;32.852;-116.998;2023-06-22T06:13:26;99991.44;;;24.80
45701;BMP280;36277;32.852;-116.998;2023-06-22T06:15:52;99991.47;;;24.86
45701;BMP280;36277;32.852;-116.998;2023-06-22T06:18:21;99996.41;;;24.91
45701;BMP280;36277;32.852;-116.998;2023-06-22T06:20:47;100003.25;;;24.95
45701;BMP280;36277;32.852;-116.998;2023-06-22T06:23:13;99993.69;;;24.97
45701;BMP280;36277;32.852;-116.998;2023-06-22T06:25:40;100001.75;;;24.99
45701;BMP280;36277;32.852;-116.998;2023-06-22T06:28:06;100006.22;;;25.00
45701;BMP280;36277;32.852;-116.998;2023-06-22T06:30:32;100019.84;;;25.01
45701;BMP280;36277;32.852;-116.998;2023-06-22T06:32:58;100005.84;;;25.03
45701;BMP280;36277;32.852;-116.998;2023-06-22T06:35:25;100007.53;;;25.04
45701;BMP280;36277;32.852;-116.998;2023-06-22T06:37:51;100009.25;;;25.05
45701;BMP280;36277;32.852;-116.998;2023-06-22T06:40:18;100009.06;;;25.06
45701;BMP280;36277;32.852;-116.998;2023-06-22T06:42:47;100000.56;;;25.08
45701;BMP280;36277;32.852;-116.998;2023-06-22T06:45:20;99999.50;;;25.09
45701;BMP280;36277;32.852;-116.998;2023-06-22T06:47:49;99998.00;;;25.06
45701;BMP280;36277;32.852;-116.998;2023-06-22T06:50:16;99998.84;;;25.07
45701;BMP280;36277;32.852;-116.998;2023-06-22T06:52:42;100000.56;;;25.08
45701;BMP280;36277;32.852;-116.998;2023-06-22T06:55:09;99985.91;;;25.07
45701;BMP280;36277;32.852;-116.998;2023-06-22T06:57:38;99986.75;;;25.08
45701;BMP280;36277;32.852;-116.998;2023-06-22T07:00:12;99991.22;;;25.09
45701;BMP280;36277;32.852;-116.998;2023-06-22T07:02:41;99985.91;;;25.07
45701;BMP280;36277;32.852;-116.998;2023-06-22T07:05:08;99986.97;;;25.06
45701;BMP280;36277;32.852;-116.998;2023-06-22T07:07:35;99983.16;;;25.07
45701;BMP280;36277;32.852;-116.998;2023-06-22T07:10:01;99976.75;;;25.07
45701;BMP280;36277;32.852;-116.998;2023-06-22T07:12:28;99975.91;;;25.06
45701;BMP280;36277;32.852;-116.998;2023-06-22T07:15:02;99984.63;;;25.10
45701;BMP280;36277;32.852;-116.998;2023-06-22T07:17:29;99989.50;;;25.08
45701;BMP280;36277;32.852;-116.998;2023-06-22T07:19:55;99990.38;;;25.08
45701;BMP280;36277;32.852;-116.998;2023-06-22T07:22:21;99999.50;;;25.09
45701;BMP280;36277;32.852;-116.998;2023-06-22T07:24:47;99993.31;;;25.07
45701;BMP280;36277;32.852;-116.998;2023-06-22T07:27:15;99990.56;;;25.07
45701;BMP280;36277;32.852;-116.998;2023-06-22T07:29:45;99981.44;;;25.06
45701;BMP280;36277;32.852;-116.998;2023-06-22T07:32:11;99981.44;;;25.06
45701;BMP280;36277;32.852;-116.998;2023-06-22T07:34:37;99982.28;;;25.07
45701;BMP280;36277;32.852;-116.998;2023-06-22T07:37:04;99997.16;;;25.06
45701;BMP280;36277;32.852;-116.998;2023-06-22T07:39:30;99989.91;;;25.05
45701;BMP280;36277;32.852;-116.998;2023-06-22T07:41:57;99980.56;;;25.06
45701;BMP280;36277;32.852;-116.998;2023-06-22T07:44:23;99980.56;;;25.06
45701;BMP280;36277;32.852;-116.998;2023-06-22T07:46:49;99975.06;;;25.06
45701;BMP280;36277;32.852;-116.998;2023-06-22T07:49:17;99964.88;;;25.06
45701;BMP280;36277;32.852;-116.998;2023-06-22T07:51:43;99958.06;;;25.02
45701;BMP280;36277;32.852;-116.998;2023-06-22T07:54:10;99952.13;;;25.05
45701;BMP280;36277;32.852;-116.998;2023-06-22T07:56:37;99954.00;;;25.05
45701;BMP280;36277;32.852;-116.998;2023-06-22T07:59:03;99952.53;;;25.02
45701;BMP280;36277;32.852;-116.998;2023-06-22T08:01:29;99956.34;;;25.01
45701;BMP280;36277;32.852;-116.998;2023-06-22T08:03:56;99945.47;;;25.00
45701;BMP280;36277;32.852;-116.998;2023-06-22T08:06:22;99948.25;;;25.00
45701;BMP280;36277;32.852;-116.998;2023-06-22T08:08:48;99938.91;;;25.01
45701;BMP280;36277;32.852;-116.998;2023-06-22T08:11:14;99942.72;;;25.00
45701;BMP280;36277;32.852;-116.998;2023-06-22T08:13:41;99949.94;;;25.01
45701;BMP280;36277;32.852;-116.998;2023-06-22T08:16:07;99954.63;;;25.00
45701;BMP280;36277;32.852;-116.998;2023-06-22T08:18:33;99953.78;;;25.00
45701;BMP280;36277;32.852;-116.998;2023-06-22T08:21:00;99959.28;;;25.00
45701;BMP280;36277;32.852;-116.998;2023-06-22T08:23:26;99956.53;;;25.00
45701;BMP280;36277;32.852;-116.998;2023-06-22T08:25:52;99956.75;;;24.98
45701;BMP280;36277;32.852;-116.998;2023-06-22T08:28:18;99961.41;;;24.98
45701;BMP280;36277;32.852;-116.998;2023-06-22T08:30:45;99959.72;;;24.97
45701;BMP280;36277;32.852;-116.998;2023-06-22T08:33:11;99969.91;;;24.96
45701;BMP280;36277;32.852;-116.998;2023-06-22T08:35:38;99969.06;;;24.96
45701;BMP280;36277;32.852;-116.998;2023-06-22T08:38:04;99968.19;;;24.95
45701;BMP280;36277;32.852;-116.998;2023-06-22T08:40:31;99964.59;;;24.95
45701;BMP280;36277;32.852;-116.998;2023-06-22T08:42:57;99962.88;;;24.94
45701;BMP280;36277;32.852;-116.998;2023-06-22T08:45:23;99959.25;;;24.93
45701;BMP280;36277;32.852;-116.998;2023-06-22T08:47:50;99958.41;;;24.93
45701;BMP280;36277;32.852;-116.998;2023-06-22T08:50:16;99953.94;;;24.92
45701;BMP280;36277;32.852;-116.998;2023-06-22T08:52:42;99949.50;;;24.91
45701;BMP280;36277;32.852;-116.998;2023-06-22T08:55:09;99943.97;;;24.91
45701;BMP280;36277;32.852;-116.998;2023-06-22T08:57:36;99928.47;;;24.90
45701;BMP280;36277;32.852;-116.998;2023-06-22T09:00:07;99924.00;;;24.89
45701;BMP280;36277;32.852;-116.998;2023-06-22T09:02:44;99928.63;;;24.88
45701;BMP280;36277;32.852;-116.998;2023-06-22T09:05:10;99920.56;;;24.87
45701;BMP280;36277;32.852;-116.998;2023-06-22T09:07:37;99924.38;;;24.86
45701;BMP280;36277;32.852;-116.998;2023-06-22T09:10:03;99928.00;;;24.86
45701;BMP280;36277;32.852;-116.998;2023-06-22T09:12:33;99919.72;;;24.86
45701;BMP280;36277;32.852;-116.998;2023-06-22T09:15:00;99929.91;;;24.86
45701;BMP280;36277;32.852;-116.998;2023-06-22T09:17:26;99927.16;;;24.86
45701;BMP280;36277;32.852;-116.998;2023-06-22T09:19:53;99933.72;;;24.85
45701;BMP280;36277;32.852;-116.998;2023-06-22T09:22:19;99928.00;;;24.86
45701;BMP280;36277;32.852;-116.998;2023-06-22T09:24:45;99934.56;;;24.85
45701;BMP280;36277;32.852;-116.998;2023-06-22T09:27:12;99933.72;;;24.85
45701;BMP280;36277;32.852;-116.998;2023-06-22T09:29:38;99936.72;;;24.83
45701;BMP280;36277;32.852;-116.998;2023-06-22T09:32:04;99938.41;;;24.84
45701;BMP280;36277;32.852;-116.998;2023-06-22T09:34:31;99948.81;;;24.82
45701;BMP280;36277;32.852;-116.998;2023-06-22T09:36:57;99938.81;;;24.81
45701;BMP280;36277;32.852;-116.998;2023-06-22T09:39:26;99933.69;;;24.78
45701;BMP280;36277;32.852;-116.998;2023-06-22T09:41:52;99940.94;;;24.79
45701;BMP280;36277;32.852;-116.998;2023-06-22T09:44:18;99943.88;;;24.78
45701;BMP280;36277;32.852;-116.998;2023-06-22T09:46:45;99948.56;;;24.77
45701;BMP280;36277;32.852;-116.998;2023-06-22T09:49:11;99942.16;;;24.77
45701;BMP280;36277;32.852;-116.998;2023-06-22T09:51:37;99936.00;;;24.75
45701;BMP280;36277;32.852;-116.998;2023-06-22T09:54:03;99940.44;;;24.76
45701;BMP280;36277;32.852;-116.998;2023-06-22T09:56:30;99938.75;;;24.75
45701;BMP280;36277;32.852;-116.998;2023-06-22T09:58:57;99945.97;;;24.76
45701;BMP280;36277;32.852;-116.998;2023-06-22T10:01:23;99940.66;;;24.74
45701;BMP280;36277;32.852;-116.998;2023-06-22T10:03:52;99938.56;;;24.76
45701;BMP280;36277;32.852;-116.998;2023-06-22T10:06:22;99933.22;;;24.75
45701;BMP280;36277;32.852;-116.998;2023-06-22T10:08:50;99924.75;;;24.76
45701;BMP280;36277;32.852;-116.998;2023-06-22T10:11:16;99929.81;;;24.73
45701;BMP280;36277;32.852;-116.998;2023-06-22T10:13:43;99928.97;;;24.72
45701;BMP280;36277;32.852;-116.998;2023-06-22T10:16:09;99935.34;;;24.73
45701;BMP280;36277;32.852;-116.998;2023-06-22T10:18:35;99940.03;;;24.72
45701;BMP280;36277;32.852;-116.998;2023-06-22T10:21:02;99928.97;;;24.72
45701;BMP280;36277;32.852;-116.998;2023-06-22T10:23:28;99929.19;;;24.71
45701;BMP280;36277;32.852;-116.998;2023-06-22T10:25:54;99930.91;;;24.72
45701;BMP280;36277;32.852;-116.998;2023-06-22T10:28:23;99927.50;;;24.70
45701;BMP280;36277;32.852;-116.998;2023-06-22T10:30:49;99934.91;;;24.69
45701;BMP280;36277;32.852;-116.998;2023-06-22T10:33:16;99928.53;;;24.69
45701;BMP280;36277;32.852;-116.998;2023-06-22T10:35:42;99938.94;;;24.67
45701;BMP280;36277;32.852;-116.998;2023-06-22T10:38:08;99935.13;;;24.68
45701;BMP280;36277;32.852;-116.998;2023-06-22T10:40:35;99939.78;;;24.67
45701;BMP280;36277;32.852;-116.998;2023-06-22T10:43:01;99923.44;;;24.66
45701;BMP280;36277;32.852;-116.998;2023-06-22T10:45:27;99936.16;;;24.67
45701;BMP280;36277;32.852;-116.998;2023-06-22T10:47:53;99930.00;;;24.65
45701;BMP280;36277;32.852;-116.998;2023-06-22T10:50:20;99924.47;;;24.65
45701;BMP280;36277;32.852;-116.998;2023-06-22T10:52:46;99918.75;;;24.66
45701;BMP280;36277;32.852;-116.998;2023-06-22T10:55:12;99918.97;;;24.65
45701;BMP280;36277;32.852;-116.998;2023-06-22T10:57:38;99914.09;;;24.67
45701;BMP280;36277;32.852;-116.998;2023-06-22T11:00:09;99920.84;;;24.64
45701;BMP280;36277;32.852;-116.998;2023-06-22T11:02:36;99911.50;;;24.65
45701;BMP280;36277;32.852;-116.998;2023-06-22T11:05:03;99922.38;;;24.67
45701;BMP280;36277;32.852;-116.998;2023-06-22T11:07:29;99914.09;;;24.67
45701;BMP280;36277;32.852;-116.998;2023-06-22T11:09:55;99912.38;;;24.66
45701;BMP280;36277;32.852;-116.998;2023-06-22T11:12:22;99915.78;;;24.68
45701;BMP280;36277;32.852;-116.998;2023-06-22T11:14:48;99919.59;;;24.67
45701;BMP280;36277;32.852;-116.998;2023-06-22T11:17:17;99916.63;;;24.68
45701;BMP280;36277;32.852;-116.998;2023-06-22T11:19:44;99910.28;;;24.68
45701;BMP280;36277;32.852;-116.998;2023-06-22T11:22:11;99912.16;;;24.67
45701;BMP280;36277;32.852;-116.998;2023-06-22T11:24:37;99908.56;;;24.67
45701;BMP280;36277;32.852;-116.998;2023-06-22T11:27:03;99901.34;;;24.66
45701;BMP280;36277;32.852;-116.998;2023-06-22T11:29:29;99903.06;;;24.67
45701;BMP280;36277;32.852;-116.998;2023-06-22T11:32:00;99902.19;;;24.66
45701;BMP280;36277;32.852;-116.998;2023-06-22T11:34:26;99906.88;;;24.66
45701;BMP280;36277;32.852;-116.998;2023-06-22T11:36:53;99904.09;;;24.66
45701;BMP280;36277;32.852;-116.998;2023-06-22T11:39:20;99896.88;;;24.65
45701;BMP280;36277;32.852;-116.998;2023-06-22T11:41:46;99894.13;;;24.65
45701;BMP280;36277;32.852;-116.998;2023-06-22T11:44:12;99902.59;;;24.63
45701;BMP280;36277;32.852;-116.998;2023-06-22T11:46:38;99905.16;;;24.65
45701;BMP280;36277;32.852;-116.998;2023-06-22T11:49:05;99917.91;;;24.66
45701;BMP280;36277;32.852;-116.998;2023-06-22T11:51:31;99914.28;;;24.65
45701;BMP280;36277;32.852;-116.998;2023-06-22T11:53:57;99915.31;;;24.64
45701;BMP280;36277;32.852;-116.998;2023-06-22T11:56:24;99906.41;;;24.62
45701;BMP280;36277;32.852;-116.998;2023-06-22T11:58:50;99917.25;;;24.64
45701;BMP280;36277;32.852;-116.998;2023-06-22T12:01:17;99912.78;;;24.63
45701;BMP280;36277;32.852;-116.998;2023-06-22T12:03:43;99920.00;;;24.64
45701;BMP280;36277;32.852;-116.998;2023-06-22T12:06:10;99921.72;;;24.65
45701;BMP280;36277;32.852;-116.998;2023-06-22T12:08:36;99924.47;;;24.65
45701;BMP280;36277;32.852;-116.998;2023-06-22T12:11:02;99933.81;;;24.64
45701;BMP280;36277;32.852;-116.998;2023-06-22T12:13:28;99941.44;;;24.62
45701;BMP280;36277;32.852;-116.998;2023-06-22T12:15:54;99950.56;;;24.62
45701;BMP280;36277;32.852;-116.998;2023-06-22T12:18:21;99953.13;;;24.64
45701;BMP280;36277;32.852;-116.998;2023-06-22T12:20:47;99950.56;;;24.62
45701;BMP280;36277;32.852;-116.998;2023-06-22T12:23:14;99958.00;;;24.62
45701;BMP280;36277;32.852;-116.998;2023-06-22T12:25:41;99970.09;;;24.61
45701;BMP280;36277;32.852;-116.998;2023-06-22T12:28:07;99967.31;;;24.61
45701;BMP280;36277;32.852;-116.998;2023-06-22T12:30:33;99974.56;;;24.62
45701;BMP280;36277;32.852;-116.998;2023-06-22T12:33:00;99967.97;;;24.63
45701;BMP280;36277;32.852;-116.998;2023-06-22T12:35:26;99972.63;;;24.62
45701;BMP280;36277;32.852;-116.998;2023-06-22T12:37:52;99973.50;;;24.63
45701;BMP280;36277;32.852;-116.998;2023-06-22T12:40:19;99976.25;;;24.63
45701;BMP280;36277;32.852;-116.998;2023-06-22T12:42:45;99971.78;;;24.62
45701;BMP280;36277;32.852;-116.998;2023-06-22T12:45:12;99955.41;;;24.60
45701;BMP280;36277;32.852;-116.998;2023-06-22T12:47:38;99951.41;;;24.63
45701;BMP280;36277;32.852;-116.998;2023-06-22T12:50:05;99940.38;;;24.63
45701;BMP280;36277;32.852;-116.998;2023-06-22T12:52:31;99941.22;;;24.63
45701;BMP280;36277;32.852;-116.998;2023-06-22T12:55:00;99944.84;;;24.64
45701;BMP280;36277;32.852;-116.998;2023-06-22T12:57:26;99949.31;;;24.65
45701;BMP280;36277;32.852;-116.998;2023-06-22T12:59:52;99946.75;;;24.63
45701;BMP280;36277;32.852;-116.998;2023-06-22T13:02:19;99954.19;;;24.63
45701;BMP280;36277;32.852;-116.998;2023-06-22T13:04:45;99966.47;;;24.60
45701;BMP280;36277;32.852;-116.998;2023-06-22T13:07:11;99967.31;;;24.61
45701;BMP280;36277;32.852;-116.998;2023-06-22T13:09:38;99965.63;;;24.60
45701;BMP280;36277;32.852;-116.998;2023-06-22T13:12:04;99967.50;;;24.59
45701;BMP280;36277;32.852;-116.998;2023-06-22T13:14:30;99969.66;;;24.57
45701;BMP280;36277;32.852;-116.998;2023-06-22T13:16:57;99971.34;;;24.58
45701;BMP280;36277;32.852;-116.998;2023-06-22T13:19:23;99975.78;;;24.59
45701;BMP280;36277;32.852;-116.998;2023-06-22T13:21:49;99969.66;;;24.57
45701;BMP280;36277;32.852;-116.998;2023-06-22T13:24:15;99973.44;;;24.56
45701;BMP280;36277;32.852;-116.998;2023-06-22T13:26:42;99981.91;;;24.55
45701;BMP280;36277;32.852;-116.998;2023-06-22T13:29:08;99972.59;;;24.56
45701;BMP280;36277;32.852;-116.998;2023-06-22T13:31:34;99975.56;;;24.54
45701;BMP280;36277;32.852;-116.998;2023-06-22T13:34:00;99984.88;;;24.53
45701;BMP280;36277;32.852;-116.998;2023-06-22T13:36:27;99987.44;;;24.55
45701;BMP280;36277;32.852;-116.998;2023-06-22T13:38:56;99988.50;;;24.54
45701;BMP280;36277;32.852;-116.998;2023-06-22T13:41:22;100000.19;;;24.56
45701;BMP280;36277;32.852;-116.998;2023-06-22T13:43:48;99996.38;;;24.57
45701;BMP280;36277;32.852;-116.998;2023-06-22T13:46:15;99986.19;;;24.57